createdAt,value
2018-07-21T00:00:26.170Z,66.85
2018-07-21T00:02:54.652Z,66.67
2018-07-21T00:05:23.134Z,66.87
2018-07-21T00:07:52.827Z,66.45
2018-07-21T00:10:22.763Z,66.00
2018-07-21T00:12:51.793Z,66.46
2018-07-21T00:15:20.704Z,66.25
2018-07-21T00:17:49.514Z,66.29
2018-07-21T00:20:17.955Z,65.67
2018-07-21T00:22:46.842Z,65.83
2018-07-21T00:25:15.700Z,66.28
2018-07-21T00:27:44.273Z,65.59
2018-07-21T00:30:13.205Z,66.21
2018-07-21T00:32:41.834Z,66.12
2018-07-21T00:35:10.342Z,66.16
2018-07-21T00:37:39.569Z,66.36
2018-07-21T00:40:08.324Z,66.34
2018-07-21T00:42:36.809Z,66.22
2018-07-21T00:45:05.958Z,66.30
2018-07-21T00:47:34.925Z,66.45
2018-07-21T00:50:04.061Z,66.02
2018-07-21T00:52:32.885Z,66.01
2018-07-21T00:55:01.646Z,66.53
2018-07-21T00:57:30.132Z,66.43
2018-07-21T00:59:59.498Z,66.65
2018-07-21T01:02:28.424Z,67.10
2018-07-21T01:04:57.137Z,67.14
2018-07-21T01:07:26.780Z,67.15
2018-07-21T01:09:55.285Z,67.06
2018-07-21T01:12:24.033Z,67.14
2018-07-21T01:14:52.930Z,67.64
2018-07-21T01:17:21.701Z,67.30
2018-07-21T01:19:50.366Z,67.96
2018-07-21T01:22:19.287Z,67.92
2018-07-21T01:24:48.046Z,68.09
2018-07-21T01:27:16.825Z,68.30
2018-07-21T01:29:45.665Z,68.33
2018-07-21T01:32:14.717Z,68.36
2018-07-21T01:34:43.501Z,68.21
2018-07-21T01:37:12.220Z,67.76
2018-07-21T01:39:40.657Z,67.92
2018-07-21T01:42:09.754Z,67.57
2018-07-21T01:44:38.908Z,67.59
2018-07-21T01:47:07.410Z,67.44
2018-07-21T01:49:36.401Z,67.55
2018-07-21T01:52:05.267Z,67.85
2018-07-21T01:54:33.730Z,67.27
2018-07-21T01:57:02.209Z,67.72
2018-07-21T01:59:31.332Z,67.70
2018-07-21T02:01:59.832Z,67.15
2018-07-21T02:04:28.708Z,67.72
2018-07-21T02:06:57.668Z,67.30
2018-07-21T02:09:26.513Z,67.17
2018-07-21T02:11:55.002Z,67.27
2018-07-21T02:14:24.141Z,67.02
2018-07-21T02:16:53.166Z,67.49
2018-07-21T02:19:21.679Z,67.52
2018-07-21T02:21:50.399Z,67.36
2018-07-21T02:24:18.873Z,67.33
2018-07-21T02:26:47.350Z,67.02
2018-07-21T02:29:16.414Z,67.17
2018-07-21T02:31:45.452Z,67.28
2018-07-21T02:34:13.917Z,67.70
2018-07-21T02:36:42.828Z,67.54
2018-07-21T02:39:12.804Z,67.08
2018-07-21T02:41:41.740Z,67.03
2018-07-21T02:44:10.409Z,66.40
2018-07-21T02:46:38.966Z,66.38
2018-07-21T02:49:07.437Z,66.66
2018-07-21T02:51:36.176Z,66.25
2018-07-21T02:54:04.805Z,66.45
2018-07-21T02:56:33.650Z,66.82
2018-07-21T02:59:02.377Z,66.90
2018-07-21T03:01:30.825Z,66.79
2018-07-21T03:03:59.613Z,67.07
2018-07-21T03:06:28.400Z,66.94
2018-07-21T03:08:56.874Z,67.34
2018-07-21T03:11:25.357Z,67.41
2018-07-21T03:13:56.649Z,67.04
2018-07-21T03:16:25.298Z,67.09
2018-07-21T03:18:54.525Z,67.34
2018-07-21T03:21:23.146Z,67.11
2018-07-21T03:23:51.995Z,67.81
2018-07-21T03:26:20.838Z,68.00
2018-07-21T03:28:49.366Z,68.02
2018-07-21T03:31:18.774Z,68.07
2018-07-21T03:33:47.925Z,68.29
2018-07-21T03:36:16.399Z,68.23
2018-07-21T03:38:45.009Z,68.56
2018-07-21T03:41:13.904Z,68.28
2018-07-21T03:43:42.381Z,68.65
2018-07-21T03:46:10.845Z,69.12
2018-07-21T03:48:39.944Z,68.67
2018-07-21T03:51:08.809Z,69.58
2018-07-21T03:53:37.387Z,69.65
2018-07-21T03:56:06.398Z,69.63
2018-07-21T03:58:35.096Z,70.32
2018-07-21T04:01:03.605Z,70.51
2018-07-21T04:03:32.686Z,69.90
2018-07-21T04:06:01.575Z,69.80
2018-07-21T04:08:30.725Z,70.42
2018-07-21T04:10:59.842Z,70.16
2018-07-21T04:13:28.285Z,70.19
2018-07-21T04:15:56.745Z,69.93
2018-07-21T04:18:25.729Z,70.46
2018-07-21T04:20:54.181Z,70.19
2018-07-21T04:23:23.189Z,69.91
2018-07-21T04:25:52.433Z,70.31
2018-07-21T04:28:21.010Z,70.18
2018-07-21T04:30:50.121Z,70.63
2018-07-21T04:33:19.389Z,70.59
2018-07-21T04:35:47.846Z,70.81
2018-07-21T04:38:16.509Z,70.74
2018-07-21T04:40:45.376Z,70.60
2018-07-21T04:43:13.813Z,70.29
2018-07-21T04:45:42.271Z,70.77
2018-07-21T04:48:11.559Z,70.92
2018-07-21T04:50:40.018Z,70.73
2018-07-21T04:53:08.958Z,70.46
2018-07-21T04:55:38.441Z,70.45
2018-07-21T04:58:06.964Z,71.38
2018-07-21T05:00:35.448Z,71.40
2018-07-21T05:03:04.472Z,71.37
2018-07-21T05:05:32.977Z,71.51
2018-07-21T05:08:01.729Z,71.38
2018-07-21T05:10:30.954Z,71.36
2018-07-21T05:12:59.653Z,71.56
2018-07-21T05:15:28.345Z,71.69
2018-07-21T05:17:56.945Z,72.19
2018-07-21T05:20:25.706Z,72.29
2018-07-21T05:22:54.161Z,72.36
2018-07-21T05:25:23.289Z,72.74
2018-07-21T05:27:53.046Z,72.50
2018-07-21T05:30:22.009Z,72.26
2018-07-21T05:32:51.170Z,73.12
2018-07-21T05:35:20.110Z,73.16
2018-07-21T05:37:48.989Z,73.83
2018-07-21T05:40:17.875Z,73.26
2018-07-21T05:42:46.617Z,72.97
2018-07-21T05:45:15.151Z,72.60
2018-07-21T05:47:44.010Z,72.99
2018-07-21T05:50:12.613Z,73.05
2018-07-21T05:52:41.433Z,73.42
2018-07-21T05:55:10.288Z,72.99
2018-07-21T05:57:38.776Z,72.85
2018-07-21T06:00:10.622Z,72.66
2018-07-21T06:02:40.086Z,72.89
2018-07-21T06:05:08.526Z,72.64
2018-07-21T06:07:37.201Z,73.44
2018-07-21T06:10:06.010Z,73.61
2018-07-21T06:12:34.565Z,73.53
2018-07-21T06:15:04.129Z,72.59
2018-07-21T06:17:33.370Z,72.51
2018-07-21T06:20:02.077Z,72.76
2018-07-21T06:22:31.109Z,72.62
2018-07-21T06:25:00.069Z,73.20
2018-07-21T06:27:28.520Z,72.69
2018-07-21T06:29:57.212Z,73.13
2018-07-21T06:32:26.083Z,73.04
2018-07-21T06:34:54.546Z,72.80
2018-07-21T06:37:24.075Z,72.83
2018-07-21T06:39:54.029Z,72.87
2018-07-21T06:42:22.953Z,73.25
2018-07-21T06:44:51.447Z,72.63
2018-07-21T06:47:20.522Z,71.91
2018-07-21T06:49:49.020Z,71.60
2018-07-21T06:52:17.513Z,71.55
2018-07-21T06:54:46.416Z,71.01
2018-07-21T06:57:15.134Z,71.61
2018-07-21T06:59:43.638Z,70.81
2018-07-21T07:02:12.765Z,71.21
2018-07-21T07:04:41.565Z,70.68
2018-07-21T07:07:10.009Z,71.08
2018-07-21T07:09:38.935Z,70.31
2018-07-21T07:12:08.856Z,70.49
2018-07-21T07:14:37.309Z,70.25
2018-07-21T07:17:06.440Z,69.50
2018-07-21T07:19:35.211Z,69.83
2018-07-21T07:22:03.717Z,69.47
2018-07-21T07:24:32.477Z,69.60
2018-07-21T07:27:01.307Z,69.94
2018-07-21T07:29:29.775Z,69.43
2018-07-21T07:31:58.289Z,69.73
2018-07-21T07:34:27.016Z,69.87
2018-07-21T07:36:55.473Z,69.67
2018-07-21T07:39:24.519Z,69.50
2018-07-21T07:41:53.388Z,69.66
2018-07-21T07:44:22.073Z,69.10
2018-07-21T07:46:51.654Z,68.66
2018-07-21T07:49:20.445Z,68.24
2018-07-21T07:51:49.357Z,68.85
2018-07-21T07:54:18.114Z,68.45
2018-07-21T07:56:46.589Z,68.66
2018-07-21T07:59:15.412Z,68.69
2018-07-21T08:01:44.375Z,67.62
2018-07-21T08:04:12.821Z,67.52
2018-07-21T08:06:41.774Z,67.36
2018-07-21T08:09:12.301Z,68.16
2018-07-21T08:11:41.553Z,67.84
2018-07-21T08:14:10.025Z,66.82
2018-07-21T08:16:39.221Z,66.63
2018-07-21T08:19:09.020Z,65.27
2018-07-21T08:21:37.581Z,64.38
2018-07-21T08:24:06.759Z,64.21
2018-07-21T08:26:35.213Z,64.06
2018-07-21T08:29:03.737Z,63.39
2018-07-21T08:31:32.922Z,63.12
2018-07-21T08:34:01.530Z,62.45
2018-07-21T08:36:29.983Z,62.50
2018-07-21T08:38:58.936Z,61.38
2018-07-21T08:41:27.790Z,60.62
2018-07-21T08:43:56.297Z,60.61
2018-07-21T08:46:24.974Z,60.06
2018-07-21T08:48:54.016Z,60.06
2018-07-21T08:51:22.449Z,60.40
2018-07-21T08:53:51.581Z,60.71
2018-07-21T08:56:20.174Z,60.23
2018-07-21T08:58:49.086Z,59.93
2018-07-21T09:01:17.977Z,59.79
2018-07-21T09:03:46.469Z,58.72
2018-07-21T09:06:15.163Z,57.96
2018-07-21T09:08:43.654Z,58.04
2018-07-21T09:11:12.423Z,57.74
2018-07-21T09:13:41.196Z,58.20
2018-07-21T09:16:10.065Z,56.75
2018-07-21T09:18:38.759Z,56.58
2018-07-21T09:21:07.264Z,55.71
2018-07-21T09:23:36.277Z,55.39
2018-07-21T09:26:04.929Z,54.50
2018-07-21T09:28:33.381Z,53.45
2018-07-21T09:31:01.989Z,53.33
2018-07-21T09:33:30.663Z,52.04
2018-07-21T09:36:03.782Z,51.03
2018-07-21T09:38:32.837Z,50.00
2018-07-21T09:41:01.285Z,48.29
2018-07-21T09:43:30.151Z,47.64
2018-07-21T09:45:59.286Z,48.03
2018-07-21T09:48:27.773Z,47.14
2018-07-21T09:50:56.844Z,45.70
2018-07-21T09:53:25.555Z,46.54
2018-07-21T09:55:54.151Z,46.56
2018-07-21T09:58:22.786Z,46.06
2018-07-21T10:00:56.619Z,45.46
2018-07-21T10:03:25.896Z,44.93
2018-07-21T10:05:55.075Z,44.90
2018-07-21T10:08:23.641Z,43.99
2018-07-21T10:10:54.365Z,44.33
2018-07-21T10:13:22.869Z,43.91
2018-07-21T10:15:51.949Z,42.17
2018-07-21T10:18:20.718Z,43.04
2018-07-21T10:20:49.177Z,42.88
2018-07-21T10:23:17.892Z,42.86
2018-07-21T10:25:52.202Z,42.00
2018-07-21T10:28:26.052Z,41.19
2018-07-21T10:30:54.919Z,39.95
2018-07-21T10:33:24.176Z,40.17
2018-07-21T10:35:52.701Z,41.06
2018-07-21T10:38:21.581Z,40.91
2018-07-21T10:40:50.139Z,39.26
2018-07-21T10:43:18.751Z,40.03
2018-07-21T10:45:47.561Z,39.10
2018-07-21T10:48:16.045Z,39.13
2018-07-21T10:50:44.556Z,38.52
2018-07-21T10:53:13.393Z,39.02
2018-07-21T10:55:42.153Z,37.81
2018-07-21T10:58:10.693Z,38.35
2018-07-21T11:00:39.170Z,37.33
2018-07-21T11:03:07.927Z,37.28
2018-07-21T11:05:36.378Z,36.39
2018-07-21T11:08:05.488Z,37.10
2018-07-21T11:10:34.293Z,37.07
2018-07-21T11:13:02.941Z,35.71
2018-07-21T11:15:31.624Z,35.52
2018-07-21T11:18:01.123Z,34.56
2018-07-21T11:20:29.993Z,34.90
2018-07-21T11:22:58.500Z,34.66
2018-07-21T11:25:27.010Z,35.47
2018-07-21T11:27:56.010Z,36.77
2018-07-21T11:30:24.970Z,37.58
2018-07-21T11:32:53.678Z,36.92
2018-07-21T11:35:22.951Z,37.30
2018-07-21T11:37:51.445Z,38.12
2018-07-21T11:40:20.429Z,36.87
2018-07-21T11:42:49.030Z,36.79
2018-07-21T11:45:17.945Z,37.45
2018-07-21T11:47:46.373Z,36.45
2018-07-21T11:50:14.828Z,36.47
2018-07-21T11:52:43.664Z,35.56
2018-07-21T11:55:12.094Z,36.50
2018-07-21T11:57:40.541Z,35.40
2018-07-21T12:00:10.048Z,35.70
2018-07-21T12:02:39.134Z,33.23
2018-07-21T12:05:07.588Z,33.08
2018-07-21T12:07:36.744Z,32.85
2018-07-21T12:10:05.741Z,33.13
2018-07-21T12:12:34.200Z,34.23
2018-07-21T12:15:02.705Z,35.04
2018-07-21T12:17:31.557Z,35.11
2018-07-21T12:20:00.018Z,35.23
2018-07-21T12:22:28.901Z,35.33
2018-07-21T12:24:57.603Z,34.25
2018-07-21T12:27:26.311Z,33.14
2018-07-21T12:29:55.005Z,32.85
2018-07-21T12:32:23.881Z,32.66
2018-07-21T12:34:52.667Z,33.19
2018-07-21T12:37:21.146Z,32.00
2018-07-21T12:39:49.605Z,31.19
2018-07-21T12:42:18.406Z,31.08
2018-07-21T12:44:47.042Z,32.02
2018-07-21T12:47:15.515Z,32.07
2018-07-21T12:49:44.676Z,32.36
2018-07-21T12:52:13.149Z,32.72
2018-07-21T12:54:44.511Z,32.19
2018-07-21T12:57:13.433Z,31.53
2018-07-21T12:59:41.957Z,32.66
2018-07-21T13:02:10.457Z,32.99
2018-07-21T13:04:38.969Z,32.53
2018-07-21T13:07:08.236Z,32.09
2018-07-21T13:09:36.756Z,31.09
2018-07-21T13:12:05.518Z,31.22
2018-07-21T13:14:34.137Z,33.24
2018-07-21T13:17:05.189Z,34.67
2018-07-21T13:19:34.001Z,36.60
2018-07-21T13:22:02.926Z,36.96
2018-07-21T13:24:31.601Z,37.25
2018-07-21T13:27:00.072Z,37.74
2018-07-21T13:29:29.129Z,36.85
2018-07-21T13:31:57.839Z,38.03
2018-07-21T13:34:26.329Z,38.14
2018-07-21T13:36:55.222Z,38.96
2018-07-21T13:39:23.692Z,39.67
2018-07-21T13:41:52.374Z,39.53
2018-07-21T13:44:21.115Z,39.33
2018-07-21T13:46:49.581Z,39.39
2018-07-21T13:49:18.029Z,39.89
2018-07-21T13:51:47.063Z,39.95
2018-07-21T13:54:15.833Z,40.03
2018-07-21T13:56:44.315Z,39.59
2018-07-21T13:59:12.889Z,40.76
2018-07-21T14:01:42.217Z,40.69
2018-07-21T14:04:10.673Z,39.88
2018-07-21T14:06:39.417Z,40.02
2018-07-21T14:09:09.237Z,40.42
2018-07-21T14:11:38.426Z,40.48
2018-07-21T14:14:07.565Z,40.23
2018-07-21T14:16:36.477Z,40.42
2018-07-21T14:19:05.446Z,38.63
2018-07-21T14:21:34.361Z,37.81
2018-07-21T14:24:03.461Z,36.36
2018-07-21T14:26:32.548Z,35.49
2018-07-21T14:29:01.880Z,35.19
2018-07-21T14:31:30.341Z,35.18
2018-07-21T14:33:58.985Z,33.97
2018-07-21T14:36:28.342Z,33.77
2018-07-21T14:38:56.759Z,32.23
2018-07-21T14:41:25.201Z,31.94
2018-07-21T14:43:54.307Z,30.98
2018-07-21T14:46:23.639Z,31.11
2018-07-21T14:48:53.065Z,29.76
2018-07-21T14:51:25.557Z,30.65
2018-07-21T14:53:54.761Z,30.44
2018-07-21T14:56:23.653Z,29.84
2018-07-21T14:58:53.213Z,29.27
2018-07-21T15:01:22.584Z,30.04
2018-07-21T15:03:57.766Z,30.23
2018-07-21T15:06:26.585Z,29.55
2018-07-21T15:08:55.110Z,29.63
2018-07-21T15:11:23.845Z,29.77
2018-07-21T15:13:52.686Z,30.34
2018-07-21T15:16:22.278Z,30.63
2018-07-21T15:18:51.091Z,31.10
2018-07-21T15:21:20.073Z,30.35
2018-07-21T15:23:48.529Z,30.36
2018-07-21T15:26:17.545Z,30.68
2018-07-21T15:28:46.749Z,31.31
2018-07-21T15:31:15.300Z,31.12
2018-07-21T15:33:45.743Z,30.97
2018-07-21T15:36:15.057Z,30.52
2018-07-21T15:38:43.567Z,29.13
2018-07-21T15:41:12.019Z,28.68
2018-07-21T15:43:41.237Z,29.52
2018-07-21T15:46:09.698Z,29.74
2018-07-21T15:48:38.144Z,30.25
2018-07-21T15:51:07.147Z,31.52
2018-07-21T15:53:35.597Z,32.69
2018-07-21T15:56:04.066Z,33.76
2018-07-21T15:58:33.248Z,35.46
2018-07-21T16:01:01.706Z,36.58
2018-07-21T16:03:30.194Z,37.37
2018-07-21T16:05:59.462Z,38.11
2018-07-21T16:08:34.800Z,38.48
2018-07-21T16:11:03.317Z,39.27
2018-07-21T16:13:32.254Z,39.62
2018-07-21T16:16:00.788Z,40.19
2018-07-21T16:18:29.807Z,41.34
2018-07-21T16:21:00.576Z,41.54
2018-07-21T16:23:29.514Z,41.85
2018-07-21T16:26:05.200Z,42.28
2018-07-21T16:28:33.974Z,41.69
2018-07-21T16:31:02.435Z,42.50
2018-07-21T16:33:31.270Z,42.36
2018-07-21T16:35:59.993Z,42.34
2018-07-21T16:38:28.958Z,43.31
2018-07-21T16:40:57.417Z,43.55
2018-07-21T16:43:26.081Z,43.01
2018-07-21T16:45:55.907Z,41.70
2018-07-21T16:48:24.676Z,40.53
2018-07-21T16:50:53.871Z,39.11
2018-07-21T16:53:24.013Z,40.20
2018-07-21T16:55:52.458Z,40.32
2018-07-21T16:58:21.250Z,41.99
2018-07-21T17:00:50.088Z,42.25
2018-07-21T17:03:18.534Z,42.94
2018-07-21T17:05:47.325Z,43.49
2018-07-21T17:08:16.465Z,44.66
2018-07-21T17:10:45.809Z,44.30
2018-07-21T17:13:14.562Z,45.44
2018-07-21T17:15:43.294Z,45.91
2018-07-21T17:18:11.975Z,46.51
2018-07-21T17:20:40.749Z,47.08
2018-07-21T17:23:09.472Z,47.13
2018-07-21T17:25:38.358Z,46.98
2018-07-21T17:28:07.333Z,47.15
2018-07-21T17:30:35.808Z,48.16
2018-07-21T17:33:04.326Z,48.51
2018-07-21T17:35:33.065Z,48.84
2018-07-21T17:38:01.990Z,48.93
2018-07-21T17:40:30.733Z,49.39
2018-07-21T17:42:59.733Z,50.36
2018-07-21T17:45:28.392Z,50.19
2018-07-21T17:47:56.825Z,50.63
2018-07-21T17:50:25.384Z,50.93
2018-07-21T17:53:01.337Z,50.77
2018-07-21T17:55:29.977Z,51.25
2018-07-21T17:57:59.021Z,51.32
2018-07-21T18:00:27.754Z,51.44
2018-07-21T18:02:56.219Z,51.95
2018-07-21T18:05:25.218Z,52.01
2018-07-21T18:07:53.953Z,53.27
2018-07-21T18:10:22.708Z,53.09
2018-07-21T18:12:51.388Z,53.39
2018-07-21T18:15:20.161Z,53.92
2018-07-21T18:17:49.001Z,53.86
2018-07-21T18:20:17.638Z,54.62
2018-07-21T18:22:46.509Z,54.87
2018-07-21T18:25:15.424Z,54.95
2018-07-21T18:27:43.863Z,54.95
2018-07-21T18:30:12.426Z,55.48
2018-07-21T18:32:42.661Z,56.00
2018-07-21T18:35:11.329Z,56.22
2018-07-21T18:37:40.001Z,55.79
2018-07-21T18:40:08.529Z,56.02
2018-07-21T18:42:37.380Z,56.27
2018-07-21T18:45:06.625Z,56.55
2018-07-21T18:47:35.351Z,56.66
2018-07-21T18:50:04.443Z,57.30
2018-07-21T18:52:33.317Z,57.30
2018-07-21T18:55:01.822Z,57.46
2018-07-21T18:57:31.061Z,57.90
2018-07-21T18:59:59.903Z,56.70
2018-07-21T19:02:29.189Z,54.46
2018-07-21T19:04:58.063Z,52.11
2018-07-21T19:07:26.815Z,50.84
2018-07-21T19:09:55.667Z,50.00
2018-07-21T19:12:30.012Z,49.66
2018-07-21T19:14:58.506Z,48.99
2018-07-21T19:17:26.937Z,49.19
2018-07-21T19:20:00.689Z,49.13
2018-07-21T19:22:29.697Z,48.72
2018-07-21T19:24:59.919Z,49.29
2018-07-21T19:27:33.133Z,49.27
2018-07-21T19:30:02.493Z,48.90
2018-07-21T19:32:38.165Z,49.11
2018-07-21T19:35:07.057Z,49.60
2018-07-21T19:37:40.895Z,49.61
2018-07-21T19:40:09.770Z,49.36
2018-07-21T19:42:38.497Z,49.39
2018-07-21T19:45:06.966Z,49.59
2018-07-21T19:47:35.779Z,49.58
2018-07-21T19:50:04.437Z,49.67
2018-07-21T19:52:33.313Z,50.08
2018-07-21T19:55:02.366Z,50.59
2018-07-21T19:57:31.169Z,50.68
2018-07-21T20:00:00.081Z,51.09
2018-07-21T20:02:28.807Z,51.17
2018-07-21T20:04:57.286Z,51.78
2018-07-21T20:07:26.108Z,51.47
2018-07-21T20:09:55.772Z,52.16
2018-07-21T20:12:25.328Z,52.21
2018-07-21T20:14:53.896Z,52.19
2018-07-21T20:17:23.395Z,52.39
2018-07-21T20:19:51.764Z,51.85
2018-07-21T20:22:20.249Z,52.19
2018-07-21T20:24:48.821Z,52.33
2018-07-21T20:27:19.413Z,51.82
2018-07-21T20:29:47.884Z,51.20
2018-07-21T20:32:16.557Z,51.43
2018-07-21T20:34:46.394Z,51.13
2018-07-21T20:37:15.734Z,50.96
2018-07-21T20:42:13.010Z,51.68
2018-07-21T20:44:41.498Z,51.86
2018-07-21T20:47:10.309Z,51.87
2018-07-21T20:49:40.216Z,52.06
2018-07-21T20:52:09.565Z,51.84
2018-07-21T20:54:38.134Z,52.27
2018-07-21T20:57:06.971Z,52.31
2018-07-21T20:59:35.466Z,51.92
2018-07-21T21:02:03.941Z,52.72
2018-07-21T21:04:32.678Z,52.75
2018-07-21T21:07:01.192Z,52.82
2018-07-21T21:09:29.753Z,52.55
2018-07-21T21:11:58.475Z,52.64
2018-07-21T21:14:27.189Z,52.48
2018-07-21T21:16:56.074Z,52.48
2018-07-21T21:19:24.554Z,52.76
2018-07-21T21:21:53.261Z,52.03
2018-07-21T21:24:22.021Z,51.96
2018-07-21T21:26:50.561Z,52.30
2018-07-21T21:29:19.715Z,52.16
2018-07-21T21:31:48.693Z,51.88
2018-07-21T21:34:17.121Z,51.44
2018-07-21T21:36:45.611Z,51.83
2018-07-21T21:39:14.765Z,51.23
2018-07-21T21:41:43.441Z,51.50
2018-07-21T21:44:12.245Z,51.56
2018-07-21T21:46:41.113Z,51.04
2018-07-21T21:49:09.563Z,51.11
2018-07-21T21:51:38.023Z,50.86
2018-07-21T21:54:07.171Z,50.84
2018-07-21T21:56:35.660Z,50.81
2018-07-21T21:59:04.225Z,50.87
2018-07-21T22:01:33.081Z,50.63
2018-07-21T22:04:01.812Z,50.51
2018-07-21T22:06:30.458Z,51.03
2018-07-21T22:08:58.909Z,50.53
2018-07-21T22:11:27.817Z,50.72
2018-07-21T22:13:56.563Z,50.80
2018-07-21T22:16:24.991Z,50.62
2018-07-21T22:18:54.226Z,50.07
2018-07-21T22:21:23.549Z,49.99
2018-07-21T22:23:52.608Z,50.05
2018-07-21T22:26:21.099Z,50.02
2018-07-21T22:28:50.073Z,50.01
2018-07-21T22:31:19.108Z,50.10
2018-07-21T22:33:47.767Z,50.53
2018-07-21T22:36:16.541Z,49.86
2018-07-21T22:38:45.745Z,50.24
2018-07-21T22:41:14.201Z,50.11
2018-07-21T22:43:42.718Z,49.67
2018-07-21T22:46:12.343Z,50.06
2018-07-21T22:48:40.794Z,50.08
2018-07-21T22:51:09.285Z,49.94
2018-07-21T22:53:38.073Z,49.93
2018-07-21T22:56:07.229Z,49.20
2018-07-21T22:58:35.707Z,49.70
2018-07-21T23:01:04.863Z,49.39
2018-07-21T23:03:33.591Z,48.36
2018-07-21T23:06:02.086Z,48.31
2018-07-21T23:08:30.793Z,48.32
2018-07-21T23:10:59.241Z,47.62
2018-07-21T23:13:27.954Z,47.58
2018-07-21T23:15:56.848Z,47.83
2018-07-21T23:18:25.455Z,47.74
2018-07-21T23:20:54.415Z,47.27
2018-07-21T23:23:23.220Z,47.85
2018-07-21T23:25:52.896Z,47.89
2018-07-21T23:28:21.965Z,47.63
2018-07-21T23:30:51.129Z,48.13
2018-07-21T23:33:19.764Z,48.28
2018-07-21T23:35:48.681Z,48.47
2018-07-21T23:38:17.558Z,48.65
2018-07-21T23:40:46.023Z,48.52
2018-07-21T23:43:14.722Z,48.84
2018-07-21T23:45:43.533Z,49.54
2018-07-21T23:48:11.981Z,49.66
2018-07-21T23:50:40.486Z,50.06
2018-07-21T23:53:09.356Z,50.30
2018-07-21T23:55:37.792Z,50.13
2018-07-21T23:58:07.031Z,50.48
